createdAt,value
2023-03-15T00:00:49.376Z,24.08
2023-03-15T00:03:16.772Z,37.45
2023-03-15T00:05:45.408Z,24.83
2023-03-15T00:08:12.980Z,26.85
2023-03-15T00:10:44.084Z,25.80
2023-03-15T00:13:11.874Z,24.33
2023-03-15T00:15:48.991Z,21.48
2023-03-15T00:18:17.201Z,20.38
2023-03-15T00:20:44.326Z,21.48
2023-03-15T00:23:11.646Z,18.00
2023-03-15T00:25:38.576Z,21.67
2023-03-15T00:28:07.177Z,18.20
2023-03-15T00:30:34.110Z,20.80
2023-03-15T00:33:01.037Z,17.00
2023-03-15T00:35:28.023Z,14.57
2023-03-15T00:37:56.137Z,15.32
2023-03-15T00:40:25.802Z,13.93
2023-03-15T00:42:52.792Z,13.55
2023-03-15T00:45:21.579Z,13.30
2023-03-15T00:47:52.944Z,13.52
2023-03-15T00:50:22.787Z,13.90
2023-03-15T00:52:50.053Z,13.27
2023-03-15T00:55:19.711Z,16.75
2023-03-15T00:57:48.697Z,11.77
2023-03-15T01:00:20.572Z,12.65
2023-03-15T01:02:47.898Z,11.02
2023-03-15T01:05:15.224Z,10.45
2023-03-15T01:07:42.356Z,10.73
2023-03-15T01:10:11.602Z,11.40
2023-03-15T01:12:38.593Z,10.55
2023-03-15T01:15:07.634Z,11.90
2023-03-15T01:17:34.919Z,5.63
2023-03-15T01:20:02.495Z,7.10
2023-03-15T01:22:29.428Z,8.82
2023-03-15T01:24:56.345Z,6.13
2023-03-15T01:27:23.246Z,9.75
2023-03-15T01:29:52.402Z,5.35
2023-03-15T01:32:19.350Z,9.45
2023-03-15T01:34:46.628Z,6.35
2023-03-15T01:37:14.661Z,6.97
2023-03-15T01:39:44.313Z,8.25
2023-03-15T01:42:11.576Z,6.38
2023-03-15T01:44:59.925Z,7.35
2023-03-15T01:47:27.979Z,6.68
2023-03-15T01:50:08.659Z,6.80
2023-03-15T01:52:38.861Z,8.95
2023-03-15T01:55:19.556Z,7.00
2023-03-15T01:58:07.313Z,6.80
2023-03-15T02:00:37.899Z,8.05
2023-03-15T02:03:15.312Z,8.32
2023-03-15T02:05:49.075Z,7.57
2023-03-15T02:08:29.999Z,9.80
2023-03-15T02:10:59.888Z,13.75
2023-03-15T02:13:30.400Z,10.98
2023-03-15T02:16:01.243Z,10.35
2023-03-15T02:18:36.044Z,7.30
2023-03-15T02:21:08.805Z,13.13
2023-03-15T02:23:36.026Z,11.60
2023-03-15T02:26:27.141Z,13.00
2023-03-15T02:28:55.033Z,11.50
2023-03-15T02:31:22.698Z,7.57
2023-03-15T02:33:52.401Z,8.82
2023-03-15T02:36:25.820Z,9.32
2023-03-15T02:38:54.249Z,8.95
2023-03-15T02:41:32.450Z,6.00
2023-03-15T02:44:14.128Z,6.35
2023-03-15T02:46:42.815Z,13.05
2023-03-15T02:49:11.881Z,10.88
2023-03-15T02:51:38.899Z,7.72
2023-03-15T02:54:05.920Z,8.73
2023-03-15T02:56:33.622Z,7.72
2023-03-15T02:59:01.701Z,8.23
2023-03-15T03:01:31.717Z,9.18
2023-03-15T03:03:59.708Z,5.45
2023-03-15T03:06:26.618Z,5.20
2023-03-15T03:08:53.719Z,4.10
2023-03-15T03:11:21.349Z,8.73
2023-03-15T03:13:48.355Z,7.78
2023-03-15T03:16:15.399Z,9.35
2023-03-15T03:18:43.519Z,7.05
2023-03-15T03:21:10.509Z,8.93
2023-03-15T03:23:37.811Z,6.85
2023-03-15T03:26:16.628Z,9.38
2023-03-15T03:28:46.631Z,3.63
2023-03-15T03:31:21.219Z,9.65
2023-03-15T03:33:49.430Z,6.10
2023-03-15T03:36:16.892Z,7.18
2023-03-15T03:38:46.127Z,4.63
2023-03-15T03:41:15.334Z,3.50
2023-03-15T03:43:42.741Z,7.15
2023-03-15T03:46:10.435Z,9.13
2023-03-15T03:48:42.817Z,9.65
2023-03-15T03:51:10.128Z,6.00
2023-03-15T03:53:37.284Z,9.75
2023-03-15T03:56:08.367Z,5.25
2023-03-15T03:58:36.706Z,6.15
2023-03-15T04:01:11.748Z,8.70
2023-03-15T04:03:40.186Z,3.05
2023-03-15T04:06:14.152Z,6.55
2023-03-15T04:08:44.595Z,6.30
2023-03-15T04:11:17.663Z,5.05
2023-03-15T04:13:49.807Z,3.28
2023-03-15T04:16:16.932Z,5.63
2023-03-15T04:18:57.448Z,8.32
2023-03-15T04:21:25.208Z,6.32
2023-03-15T04:23:57.206Z,6.55
2023-03-15T04:26:37.887Z,3.08
2023-03-15T04:29:24.207Z,15.98
2023-03-15T04:32:01.598Z,6.05
2023-03-15T04:34:51.343Z,6.32
2023-03-15T04:37:47.529Z,8.10
2023-03-15T04:40:42.898Z,4.85
2023-03-15T04:43:42.419Z,5.20
2023-03-15T04:46:26.962Z,6.10
2023-03-15T04:49:10.371Z,5.93
2023-03-15T04:51:57.610Z,3.75
2023-03-15T04:54:39.783Z,5.35
2023-03-15T04:57:27.063Z,4.70
2023-03-15T05:00:13.399Z,9.57
2023-03-15T05:03:00.600Z,4.55
2023-03-15T05:05:48.909Z,4.15
2023-03-15T05:08:31.074Z,2.10
2023-03-15T05:11:21.401Z,6.32
2023-03-15T05:14:07.569Z,4.25
2023-03-15T05:16:34.517Z,6.22
2023-03-15T05:19:12.461Z,6.70
2023-03-15T05:21:57.501Z,3.00
2023-03-15T05:24:46.989Z,7.60
2023-03-15T05:27:22.611Z,2.55
2023-03-15T05:30:09.058Z,2.10
2023-03-15T05:32:54.512Z,4.60
2023-03-15T05:35:39.605Z,4.25
2023-03-15T05:38:26.895Z,5.35
2023-03-15T05:41:12.522Z,3.00
2023-03-15T05:43:48.333Z,5.07
2023-03-15T05:46:34.003Z,4.47
2023-03-15T05:49:14.568Z,4.45
2023-03-15T05:52:00.601Z,4.65
2023-03-15T05:54:46.172Z,4.30
2023-03-15T05:57:19.069Z,2.60
2023-03-15T06:00:07.123Z,3.75
2023-03-15T06:02:44.015Z,4.90
2023-03-15T06:08:07.149Z,5.72
2023-03-15T06:10:36.629Z,4.20
2023-03-15T06:13:07.762Z,6.45
2023-03-15T06:15:34.756Z,7.18
2023-03-15T06:18:02.314Z,5.18
2023-03-15T06:20:31.165Z,11.15
2023-03-15T06:23:04.348Z,4.45
2023-03-15T06:25:40.025Z,7.57
2023-03-15T06:28:07.112Z,6.18
2023-03-15T06:30:35.866Z,7.38
2023-03-15T06:33:03.314Z,6.63
2023-03-15T06:35:31.126Z,3.17
2023-03-15T06:37:58.205Z,7.78
2023-03-15T06:40:25.156Z,12.88
2023-03-15T06:42:52.724Z,11.70
2023-03-15T06:45:20.986Z,6.20
2023-03-15T06:47:48.872Z,12.52
2023-03-15T06:50:17.358Z,13.68
2023-03-15T06:52:44.314Z,7.80
2023-03-15T06:55:12.572Z,12.55
2023-03-15T06:57:42.914Z,7.07
2023-03-15T07:00:11.960Z,10.60
2023-03-15T07:02:39.281Z,8.45
2023-03-15T07:05:06.985Z,10.77
2023-03-15T07:07:34.060Z,13.13
2023-03-15T07:10:01.025Z,9.98
2023-03-15T07:12:27.936Z,9.82
2023-03-15T07:14:54.853Z,11.88
2023-03-15T07:17:21.949Z,11.88
2023-03-15T07:19:56.241Z,10.00
2023-03-15T07:22:23.840Z,9.15
2023-03-15T07:24:51.293Z,9.75
2023-03-15T07:27:19.603Z,8.30
2023-03-15T07:29:46.687Z,11.57
2023-03-15T07:32:13.668Z,31.20
2023-03-15T07:49:40.625Z,12.20
2023-03-15T07:52:07.966Z,9.70
2023-03-15T07:54:34.914Z,8.13
2023-03-15T07:57:01.808Z,8.52
2023-03-15T16:21:18.647Z,7.93
2023-03-15T16:26:17.080Z,6.45
2023-03-15T16:28:44.494Z,6.13
2023-03-15T16:31:12.438Z,6.95
2023-03-15T16:33:39.832Z,4.80
2023-03-15T16:36:15.491Z,5.30
2023-03-15T16:38:42.435Z,3.88
2023-03-15T16:41:13.148Z,4.03
2023-03-15T16:43:40.131Z,5.20
2023-03-15T16:46:13.917Z,3.90
2023-03-15T16:51:11.284Z,4.15
2023-03-15T16:53:39.194Z,8.90
2023-03-15T16:56:06.316Z,8.52
2023-03-15T16:58:33.304Z,4.97
2023-03-15T17:01:00.269Z,8.15
2023-03-15T17:03:33.262Z,4.97
2023-03-15T17:06:01.642Z,8.93
2023-03-15T17:08:28.978Z,6.93
2023-03-15T17:10:56.017Z,6.82
2023-03-15T17:13:32.828Z,4.55
2023-03-15T17:15:59.762Z,6.78
2023-03-15T17:18:28.622Z,5.22
2023-03-15T17:20:55.630Z,11.57
2023-03-15T17:23:23.673Z,13.35
2023-03-15T17:25:51.241Z,16.42
2023-03-15T17:28:18.352Z,11.35
2023-03-15T17:30:45.409Z,10.73
2023-03-15T17:33:12.410Z,13.50
2023-03-15T17:35:58.072Z,9.73
2023-03-15T17:38:32.254Z,9.32
2023-03-15T17:40:59.529Z,8.65
2023-03-15T17:43:26.820Z,12.52
2023-03-15T17:45:53.752Z,10.55
2023-03-15T17:48:23.752Z,8.02
2023-03-15T17:50:50.788Z,9.35
2023-03-15T17:53:20.184Z,11.77
2023-03-15T17:55:48.044Z,7.53
2023-03-15T17:58:21.573Z,10.65
2023-03-15T18:00:50.898Z,12.93
2023-03-15T18:03:18.636Z,10.50
2023-03-15T18:05:45.814Z,14.68
2023-03-15T18:08:18.279Z,16.77
2023-03-15T18:10:46.216Z,17.75
2023-03-15T18:13:17.644Z,15.68
2023-03-15T18:15:45.733Z,22.50
2023-03-15T18:18:12.770Z,23.73
2023-03-15T18:20:41.167Z,24.35
2023-03-15T18:23:10.300Z,19.45
2023-03-15T18:25:37.282Z,22.65
2023-03-15T18:28:04.366Z,18.35
2023-03-15T18:30:33.165Z,15.45
2023-03-15T18:33:00.665Z,13.15
2023-03-15T18:35:31.591Z,13.70
2023-03-15T18:37:59.138Z,15.23
2023-03-15T18:40:29.612Z,13.75
2023-03-15T18:42:58.751Z,14.57
2023-03-15T18:45:35.104Z,11.00
2023-03-15T18:48:02.266Z,9.52
2023-03-15T18:50:29.919Z,10.70
2023-03-15T18:52:57.395Z,9.00
2023-03-15T18:55:24.405Z,12.10
2023-03-15T18:57:52.388Z,13.02
2023-03-15T19:00:26.699Z,9.63
2023-03-15T19:02:56.468Z,10.70
2023-03-15T19:05:24.676Z,16.80
2023-03-15T19:07:51.706Z,13.07
2023-03-15T19:10:20.416Z,9.10
2023-03-15T19:12:49.056Z,10.90
2023-03-15T19:15:17.553Z,12.95
2023-03-15T19:17:46.714Z,9.40
2023-03-15T19:20:25.103Z,10.73
2023-03-15T19:22:52.592Z,9.70
2023-03-15T19:25:19.765Z,9.45
2023-03-15T19:27:47.153Z,8.80
2023-03-15T19:30:18.229Z,8.73
2023-03-15T19:32:47.747Z,10.30
2023-03-15T19:35:15.422Z,10.00
2023-03-15T19:37:44.392Z,14.93
2023-03-15T19:40:13.097Z,8.43
2023-03-15T19:42:40.086Z,7.15
2023-03-15T19:45:08.309Z,11.15
2023-03-15T19:47:35.277Z,12.02
2023-03-15T19:50:02.838Z,10.23
2023-03-15T19:52:33.114Z,10.05
2023-03-15T19:55:01.084Z,9.45
2023-03-15T19:57:28.577Z,10.70
2023-03-15T19:59:55.500Z,7.63
2023-03-15T20:02:22.974Z,7.20
2023-03-15T20:04:50.039Z,6.25
2023-03-15T20:07:17.427Z,9.95
2023-03-15T20:09:44.436Z,7.28
2023-03-15T20:12:12.967Z,8.25
2023-03-15T20:14:40.277Z,7.60
2023-03-15T20:17:07.369Z,5.90
2023-03-15T20:19:35.976Z,21.98
2023-03-15T20:24:29.876Z,11.02
2023-03-15T20:26:56.888Z,8.85
2023-03-15T20:29:23.951Z,7.28
2023-03-15T20:31:51.904Z,5.55
2023-03-15T20:34:19.333Z,9.70
2023-03-15T20:36:46.852Z,10.50
2023-03-15T20:39:15.226Z,13.30
2023-03-15T20:41:42.689Z,14.60
2023-03-15T20:44:10.714Z,23.60
2023-03-15T20:46:38.155Z,10.38
2023-03-15T20:49:05.399Z,7.57
2023-03-15T20:51:33.026Z,9.38
2023-03-15T20:54:00.045Z,7.03
2023-03-15T20:56:27.113Z,8.73
2023-03-15T20:58:54.383Z,8.85
2023-03-15T21:01:21.481Z,4.93
2023-03-15T21:03:48.741Z,15.25
2023-03-15T21:06:15.780Z,8.32
2023-03-15T21:08:42.760Z,10.85
2023-03-15T21:11:09.995Z,9.85
2023-03-15T21:13:37.285Z,18.45
2023-03-15T21:16:04.796Z,11.10
2023-03-15T21:18:33.599Z,12.38
2023-03-15T21:21:08.289Z,6.20
2023-03-15T21:23:35.962Z,13.60
2023-03-15T21:26:06.303Z,11.10
2023-03-15T21:28:33.679Z,12.05
2023-03-15T21:31:00.848Z,11.30
2023-03-15T21:33:29.667Z,8.07
2023-03-15T21:35:59.135Z,9.05
2023-03-15T21:38:34.151Z,6.97
2023-03-15T21:41:05.785Z,8.07
2023-03-15T21:43:33.532Z,4.20
2023-03-15T21:46:06.189Z,4.82
2023-03-15T21:48:34.399Z,4.45
2023-03-15T21:51:02.208Z,4.82
2023-03-15T21:53:31.036Z,3.15
2023-03-15T21:55:59.120Z,6.97
2023-03-15T21:58:27.293Z,11.95
2023-03-15T22:01:02.432Z,3.90
2023-03-15T22:03:29.485Z,17.80
2023-03-15T22:05:57.087Z,21.08
2023-03-15T22:08:25.009Z,9.60
2023-03-15T22:10:56.896Z,5.50
2023-03-15T22:13:24.032Z,8.55
